Petersburg, Texas
Current Conditions -  °F | °C
As of 6:33 AM on Monday 20 Oct 2014 (Local Time) from KLBB Reporting Station
Haze Haze  
Wind Chill: 52°   Ceiling: Unl
Heat Index: 52°   Visibility: 1.7mi
Dew Point: 51°   Wind: 0mph
Humidity: 97%   Direction: NA
Pressure: 30.1"   Gusts: NA
Location:  33.87°N, 101.6°W
Report Text: KLBB 201133Z 00000KT 1 3/4SM R17R/4500VP6000FT BR FEW100 FEW200 11/11 A3010 RMK AO2 T01110106
Loading
Personal Weather Stations






























Interactive Weather Map
Tropical Storm Tracking
New forecast layout! Learn more

10-Day Weather Forecast

Advertisements
Track Severe Weather on mobile